Dades meteomassalio
Diari Summary for Gener 15, 2018 Units:  Both    English   Metric
« Previous Day
Next Day »
Diari Semanal Mensual Anual Personalitzat
  Maxima: Minima: Mijana:
Temperatura: TemperatureC °F /  -17.8 °C 0.0 °F /  -17.8 °C 4.4 °F /  -15.3 °C
Rosada: DewpointC °F /  -17.8 °C -2.7 °F /  -19.3 °C 0.7 °F /  -17.4 °C
Humitat: Humidity % 61 % 77 %
Velocitat del vent: WindSpeedKMH mph /  0 km/h - 7.4 mph /  11.9 km/h
Racha vent: WindSpeedGustKMH mph /  0 km/h - -
Vent:- - WNW
Pressio: PressurehPa in /  0 hPa 1024.9 in /  34703.1 hPa -
Pluja: 0.0 in /  0 mm    
Historical Graphs
 
 
Tabular Data for Gener 15, 2018
Time Temperature Dew Point Pressure Wind Wind Speed Wind Gust Humidity Rainfall Rate (Hourly) solar Conditions
TemperatureC °F /  -17.8 °C DewpointC °F /  -17.8 °C PressurehPa in /  0 hPa Calm     Humidity % HourlyPrecipMM in /  0 mm SolarRadiationWatts/m^2 W/m2 Conditions
00:06 1.7 °F /  -16.8 °C -1.1 °F /  -18.4 °C 1025.3 in /  34716.7 hPa WNW 7.4 mph /  11.9 km/h 7.4 mph /  11.9 km/h 82 % 0.0 in /  0 mm 0.0 W/m2 CLR
00:12 1.1 °F /  -17.2 °C -1.6 °F /  -18.7 °C 1025.3 in /  34716.7 hPa WNW 9.3 mph /  15 km/h 9.3 mph /  15 km/h 82 % 0.0 in /  0 mm 0.0 W/m2 CLR
00:23 1.7 °F /  -16.8 °C -0.9 °F /  -18.3 °C 1025.3 in /  34716.7 hPa WNW 13.0 mph /  20.9 km/h 13.0 mph /  20.9 km/h 83 % 0.0 in /  0 mm 0.0 W/m2 CLR
00:28 2.2 °F /  -16.6 °C -0.6 °F /  -18.1 °C 1025.3 in /  34716.7 hPa WNW 5.6 mph /  9 km/h 5.6 mph /  9 km/h 82 % 0.0 in /  0 mm 0.0 W/m2 CLR
00:37 1.7 °F /  -16.8 °C -1.1 °F /  -18.4 °C 1025.3 in /  34716.7 hPa Calm     82 % 0.0 in /  0 mm 0.0 W/m2 CLR
00:48 1.7 °F /  -16.8 °C -1.2 °F /  -18.4 °C 1025.3 in /  34716.7 hPa WNW 1.9 mph /  3.1 km/h 1.9 mph /  3.1 km/h 81 % 0.0 in /  0 mm 0.0 W/m2 CLR
00:54 1.7 °F /  -16.8 °C -1.2 °F /  -18.4 °C 1025.3 in /  34716.7 hPa Calm     81 % 0.0 in /  0 mm 0.0 W/m2 CLR
01:01 1.1 °F /  -17.2 °C -1.6 °F /  -18.7 °C 1025.3 in /  34716.7 hPa WNW 6.4 mph /  10.3 km/h 6.4 mph /  10.3 km/h 82 % 0.0 in /  0 mm 0.0 W/m2 CLR
01:07 1.1 °F /  -17.2 °C -1.4 °F /  -18.6 °C 1025.3 in /  34716.7 hPa West 9.7 mph /  15.6 km/h 9.7 mph /  15.6 km/h 83 % 0.0 in /  0 mm 0.0 W/m2 CLR
01:17 1.1 °F /  -17.2 °C -1.4 °F /  -18.6 °C 1025.3 in /  34716.7 hPa West 3.2 mph /  5.1 km/h 3.2 mph /  5.1 km/h 83 % 0.0 in /  0 mm 0.0 W/m2 CLR
01:29 1.1 °F /  -17.2 °C -1.6 °F /  -18.7 °C 1025.3 in /  34716.7 hPa Calm     82 % 0.0 in /  0 mm 0.0 W/m2 CLR
01:36 0.6 °F /  -17.4 °C -2.0 °F /  -18.9 °C 1025.3 in /  34716.7 hPa WNW 8.0 mph /  12.9 km/h 8.0 mph /  12.9 km/h 83 % 0.0 in /  0 mm 0.0 W/m2 CLR
01:43 1.1 °F /  -17.2 °C -1.3 °F /  -18.5 °C 1025.3 in /  34716.7 hPa WNW 9.3 mph /  15 km/h 9.3 mph /  15 km/h 84 % 0.0 in /  0 mm 0.0 W/m2 CLR
01:49 1.1 °F /  -17.2 °C -1.4 °F /  -18.6 °C 1025.3 in /  34716.7 hPa Calm     83 % 0.0 in /  0 mm 0.0 W/m2 CLR
01:57 1.1 °F /  -17.2 °C -1.4 °F /  -18.6 °C 1025.3 in /  34716.7 hPa Calm     83 % 0.0 in /  0 mm 0.0 W/m2 CLR
02:04 1.7 °F /  -16.8 °C -0.9 °F /  -18.3 °C 1025.3 in /  34716.7 hPa WNW 18.5 mph /  29.8 km/h 18.5 mph /  29.8 km/h 83 % 0.0 in /  0 mm 0.0 W/m2 CLR
02:24 2.2 °F /  -16.6 °C -0.7 °F /  -18.2 °C 1025.3 in /  34716.7 hPa NW 5.6 mph /  9 km/h 5.6 mph /  9 km/h 81 % 0.0 in /  0 mm 0.0 W/m2 CLR
02:30 2.2 °F /  -16.6 °C -0.7 °F /  -18.2 °C 1024.9 in /  34703.1 hPa Calm     81 % 0.0 in /  0 mm 0.0 W/m2 CLR
02:37 2.8 °F /  -16.2 °C -0.2 °F /  -17.9 °C 1025.3 in /  34716.7 hPa West 5.6 mph /  9 km/h 5.6 mph /  9 km/h 81 % 0.0 in /  0 mm 0.0 W/m2 CLR
02:44 2.2 °F /  -16.6 °C -0.6 °F /  -18.1 °C 1025.3 in /  34716.7 hPa WNW 5.6 mph /  9 km/h 5.6 mph /  9 km/h 82 % 0.0 in /  0 mm 0.0 W/m2 CLR
02:51 2.2 °F /  -16.6 °C -0.6 °F /  -18.1 °C 1025.3 in /  34716.7 hPa NW 14.8 mph /  23.8 km/h 14.8 mph /  23.8 km/h 82 % 0.0 in /  0 mm 0.0 W/m2 CLR
02:59 2.2 °F /  -16.6 °C -0.9 °F /  -18.3 °C 1025.3 in /  34716.7 hPa NW 13.0 mph /  20.9 km/h 13.0 mph /  20.9 km/h 80 % 0.0 in /  0 mm 0.0 W/m2 CLR
03:06 1.7 °F /  -16.8 °C -1.4 °F /  -18.6 °C 1025.3 in /  34716.7 hPa NW 14.8 mph /  23.8 km/h 14.8 mph /  23.8 km/h 80 % 0.0 in /  0 mm 0.0 W/m2 CLR
03:32 2.8 °F /  -16.2 °C -0.2 °F /  -17.9 °C 1025.6 in /  34726.8 hPa West 11.1 mph /  17.9 km/h 11.1 mph /  17.9 km/h 81 % 0.0 in /  0 mm 0.0 W/m2 CLR
03:42 2.8 °F /  -16.2 °C -0.2 °F /  -17.9 °C 1025.6 in /  34726.8 hPa West 5.6 mph /  9 km/h 5.6 mph /  9 km/h 81 % 0.0 in /  0 mm 0.0 W/m2 CLR
04:02 2.8 °F /  -16.2 °C -0.5 °F /  -18.1 °C 1025.6 in /  34726.8 hPa NW 13.0 mph /  20.9 km/h 13.0 mph /  20.9 km/h 79 % 0.0 in /  0 mm 0.0 W/m2 CLR
04:13 3.3 °F /  -15.9 °C -0.2 °F /  -17.9 °C 1025.6 in /  34726.8 hPa WNW 18.5 mph /  29.8 km/h 18.5 mph /  29.8 km/h 78 % 0.0 in /  0 mm 0.0 W/m2 CLR
04:25 3.9 °F /  -15.6 °C 0.4 °F /  -17.6 °C 1025.6 in /  34726.8 hPa WNW 16.7 mph /  26.9 km/h 16.7 mph /  26.9 km/h 78 % 0.0 in /  0 mm 0.0 W/m2 CLR
04:43 3.3 °F /  -15.9 °C 0.1 °F /  -17.7 °C 1025.6 in /  34726.8 hPa West 14.8 mph /  23.8 km/h 14.8 mph /  23.8 km/h 79 % 0.0 in /  0 mm 0.0 W/m2 CLR
04:56 2.8 °F /  -16.2 °C -0.3 °F /  -17.9 °C 1026.0 in /  34740.4 hPa WNW 1.9 mph /  3.1 km/h 1.9 mph /  3.1 km/h 80 % 0.0 in /  0 mm 0.0 W/m2 CLR
05:03 2.2 °F /  -16.6 °C -0.7 °F /  -18.2 °C 1026.0 in /  34740.4 hPa WSW 5.6 mph /  9 km/h 5.6 mph /  9 km/h 81 % 0.0 in /  0 mm 0.0 W/m2 CLR
05:08 2.2 °F /  -16.6 °C -0.7 °F /  -18.2 °C 1026.0 in /  34740.4 hPa WSW 3.7 mph /  6 km/h 3.7 mph /  6 km/h 81 % 0.0 in /  0 mm 0.0 W/m2 CLR
05:18 2.2 °F /  -16.6 °C -0.6 °F /  -18.1 °C 1026.0 in /  34740.4 hPa WNW 11.1 mph /  17.9 km/h 11.1 mph /  17.9 km/h 82 % 0.0 in /  0 mm 0.0 W/m2 CLR
05:31 1.7 °F /  -16.8 °C -0.9 °F /  -18.3 °C 1026.0 in /  34740.4 hPa West 4.8 mph /  7.7 km/h 4.8 mph /  7.7 km/h 83 % 0.0 in /  0 mm 0.0 W/m2 CLR
05:56 1.7 °F /  -16.8 °C -1.1 °F /  -18.4 °C 1026.3 in /  34750.5 hPa NW 5.6 mph /  9 km/h   82 % 0.0 in /  0 mm 0.0 W/m2 CLR
06:05 1.7 °F /  -16.8 °C -1.1 °F /  -18.4 °C 1026.3 in /  34750.5 hPa Calm     82 % 0.0 in /  0 mm 0.0 W/m2 CLR
06:11 1.1 °F /  -17.2 °C -1.6 °F /  -18.7 °C 1026.3 in /  34750.5 hPa Calm     82 % 0.0 in /  0 mm 0.0 W/m2 CLR
06:19 1.1 °F /  -17.2 °C -1.6 °F /  -18.7 °C 1026.3 in /  34750.5 hPa Calm     82 % 0.0 in /  0 mm 0.0 W/m2 CLR
06:40 0.6 °F /  -17.4 °C -2.0 °F /  -18.9 °C 1026.3 in /  34750.5 hPa WNW 7.4 mph /  11.9 km/h 7.4 mph /  11.9 km/h 83 % 0.0 in /  0 mm 0.0 W/m2 CLR
06:47 0.6 °F /  -17.4 °C -2.2 °F /  -19 °C 1026.3 in /  34750.5 hPa West 9.3 mph /  15 km/h 9.3 mph /  15 km/h 82 % 0.0 in /  0 mm 0.0 W/m2 CLR
06:55 0.0 °F /  -17.8 °C -2.7 °F /  -19.3 °C 1026.6 in /  34760.7 hPa WNW 9.7 mph /  15.6 km/h 9.7 mph /  15.6 km/h 82 % 0.0 in /  0 mm 0.0 W/m2 CLR
07:18 0.0 °F /  -17.8 °C -2.7 °F /  -19.3 °C 1027.0 in /  34774.2 hPa West 7.4 mph /  11.9 km/h 7.4 mph /  11.9 km/h 82 % 0.0 in /  0 mm 0.0 W/m2 CLR
07:39 0.6 °F /  -17.4 °C -2.0 °F /  -18.9 °C 1027.3 in /  34784.4 hPa West 8.0 mph /  12.9 km/h 8.0 mph /  12.9 km/h 83 % 0.0 in /  0 mm 0.0 W/m2 CLR
07:48 0.6 °F /  -17.4 °C -2.0 °F /  -18.9 °C 1027.3 in /  34784.4 hPa West 9.7 mph /  15.6 km/h 9.7 mph /  15.6 km/h 83 % 0.0 in /  0 mm 0.0 W/m2 CLR
08:08 1.1 °F /  -17.2 °C -1.4 °F /  -18.6 °C 1027.7 in /  34797.9 hPa West 14.8 mph /  23.8 km/h 14.8 mph /  23.8 km/h 83 % 0.0 in /  0 mm 0.0 W/m2 CLR
08:21 2.2 °F /  -16.6 °C -0.6 °F /  -18.1 °C 1027.7 in /  34797.9 hPa West 18.5 mph /  29.8 km/h 18.5 mph /  29.8 km/h 82 % 0.0 in /  0 mm 0.0 W/m2 OVC
08:34 2.2 °F /  -16.6 °C -0.7 °F /  -18.2 °C 1028.0 in /  34808.1 hPa WNW 14.8 mph /  23.8 km/h 14.8 mph /  23.8 km/h 81 % 0.0 in /  0 mm 7.0 W/m2 BKN
08:41 2.2 °F /  -16.6 °C -0.7 °F /  -18.2 °C 1028.0 in /  34808.1 hPa West 16.7 mph /  26.9 km/h 16.7 mph /  26.9 km/h 81 % 0.0 in /  0 mm 11.0 W/m2 BKN
08:54 2.2 °F /  -16.6 °C -0.7 °F /  -18.2 °C 1028.0 in /  34808.1 hPa West 11.1 mph /  17.9 km/h 11.1 mph /  17.9 km/h 81 % 0.0 in /  0 mm 16.0 W/m2 BKN
09:00 2.2 °F /  -16.6 °C -0.7 °F /  -18.2 °C 1028.0 in /  34808.1 hPa West 6.4 mph /  10.3 km/h 6.4 mph /  10.3 km/h 81 % 0.0 in /  0 mm 19.0 W/m2 BKN
09:27 1.7 °F /  -16.8 °C -1.1 °F /  -18.4 °C 1028.3 in /  34818.2 hPa Calm   0.8 mph /  1.3 km/h 82 % 0.0 in /  0 mm 47.0 W/m2 SCT
09:34 2.8 °F /  -16.2 °C 0.0 °F /  -17.8 °C 1028.7 in /  34831.8 hPa West 5.6 mph /  9 km/h 5.6 mph /  9 km/h 82 % 0.0 in /  0 mm 47.0 W/m2 SCT
09:43 3.3 °F /  -15.9 °C 0.4 °F /  -17.6 °C 1028.7 in /  34831.8 hPa West 3.7 mph /  6 km/h 3.7 mph /  6 km/h 81 % 0.0 in /  0 mm 53.0 W/m2 SCT
09:48 3.3 °F /  -15.9 °C 0.4 °F /  -17.6 °C 1028.7 in /  34831.8 hPa Calm     81 % 0.0 in /  0 mm 58.0 W/m2 SCT
09:54 3.9 °F /  -15.6 °C 0.9 °F /  -17.3 °C 1028.7 in /  34831.8 hPa Calm     81 % 0.0 in /  0 mm 67.0 W/m2 SCT
10:01 4.4 °F /  -15.3 °C 1.4 °F /  -17 °C 1029.0 in /  34841.9 hPa Calm     81 % 0.0 in /  0 mm 77.0 W/m2 FEW
10:13 5.6 °F /  -14.7 °C 2.0 °F /  -16.7 °C 1029.0 in /  34841.9 hPa NW 16.7 mph /  26.9 km/h 16.7 mph /  26.9 km/h 78 % 0.0 in /  0 mm 113.0 W/m2 CLR
10:20 6.1 °F /  -14.4 °C 2.2 °F /  -16.6 °C 1029.0 in /  34841.9 hPa NW 16.7 mph /  26.9 km/h 16.7 mph /  26.9 km/h 76 % 0.0 in /  0 mm 137.0 W/m2 CLR
10:26 6.7 °F /  -14.1 °C 2.3 °F /  -16.5 °C 1029.3 in /  34852.1 hPa WNW 14.8 mph /  23.8 km/h 14.8 mph /  23.8 km/h 74 % 0.0 in /  0 mm 167.0 W/m2 CLR
10:34 7.2 °F /  -13.8 °C 2.7 °F /  -16.3 °C 1029.3 in /  34852.1 hPa WNW 1.9 mph /  3.1 km/h 1.9 mph /  3.1 km/h 73 % 0.0 in /  0 mm 125.0 W/m2 CLR
10:53 7.8 °F /  -13.4 °C 3.1 °F /  -16.1 °C 1029.7 in /  34865.6 hPa WNW 13.0 mph /  20.9 km/h 13.0 mph /  20.9 km/h 72 % 0.0 in /  0 mm 114.0 W/m2 CLR
11:31 8.3 °F /  -13.2 °C 3.6 °F /  -15.8 °C 1030.0 in /  34875.8 hPa NW 18.5 mph /  29.8 km/h 18.5 mph /  29.8 km/h 72 % 0.0 in /  0 mm 185.0 W/m2 CLR
11:51 8.9 °F /  -12.8 °C 4.1 °F /  -15.5 °C 1029.7 in /  34865.6 hPa NNW 22.2 mph /  35.7 km/h 22.2 mph /  35.7 km/h 72 % 0.0 in /  0 mm 225.0 W/m2 CLR
12:00 8.9 °F /  -12.8 °C 4.1 °F /  -15.5 °C 1029.7 in /  34865.6 hPa NW 18.5 mph /  29.8 km/h 18.5 mph /  29.8 km/h 72 % 0.0 in /  0 mm 306.0 W/m2 CLR
12:17 8.9 °F /  -12.8 °C 3.7 °F /  -15.7 °C 1029.7 in /  34865.6 hPa NW 18.5 mph /  29.8 km/h 18.5 mph /  29.8 km/h 70 % 0.0 in /  0 mm 186.0 W/m2 CLR
12:52 9.4 °F /  -12.6 °C 3.8 °F /  -15.7 °C 1029.3 in /  34852.1 hPa NW 20.9 mph /  33.6 km/h 20.9 mph /  33.6 km/h 68 % 0.0 in /  0 mm 304.0 W/m2 CLR
13:21 10.0 °F /  -12.2 °C 4.2 °F /  -15.4 °C 1028.7 in /  34831.8 hPa North 29.6 mph /  47.6 km/h 29.6 mph /  47.6 km/h 67 % 0.0 in /  0 mm 260.0 W/m2 CLR
13:30 10.6 °F /  -11.9 °C 4.7 °F /  -15.2 °C 1028.3 in /  34818.2 hPa NNW 22.2 mph /  35.7 km/h 22.2 mph /  35.7 km/h 67 % 0.0 in /  0 mm 230.0 W/m2 CLR
14:01 11.1 °F /  -11.6 °C 4.6 °F /  -15.2 °C 1028.0 in /  34808.1 hPa WNW 16.7 mph /  26.9 km/h 16.7 mph /  26.9 km/h 64 % 0.0 in /  0 mm 619.0 W/m2 CLR
14:09 11.1 °F /  -11.6 °C 4.1 °F /  -15.5 °C 1028.0 in /  34808.1 hPa NW 14.8 mph /  23.8 km/h 14.8 mph /  23.8 km/h 62 % 0.0 in /  0 mm 524.0 W/m2 CLR
14:14 11.1 °F /  -11.6 °C 4.3 °F /  -15.4 °C 1028.0 in /  34808.1 hPa NNW 18.5 mph /  29.8 km/h 18.5 mph /  29.8 km/h 63 % 0.0 in /  0 mm 547.0 W/m2 CLR
14:32 11.1 °F /  -11.6 °C 4.6 °F /  -15.2 °C 1027.7 in /  34797.9 hPa North 14.8 mph /  23.8 km/h 14.8 mph /  23.8 km/h 64 % 0.0 in /  0 mm 165.0 W/m2 CLR
14:50 10.6 °F /  -11.9 °C 3.8 °F /  -15.7 °C 1027.7 in /  34797.9 hPa NNW 14.8 mph /  23.8 km/h 14.8 mph /  23.8 km/h 63 % 0.0 in /  0 mm 209.0 W/m2 CLR
14:59 11.1 °F /  -11.6 °C 3.9 °F /  -15.6 °C 1027.7 in /  34797.9 hPa NNW 14.8 mph /  23.8 km/h 14.8 mph /  23.8 km/h 61 % 0.0 in /  0 mm 346.0 W/m2 CLR
15:06 11.7 °F /  -11.3 °C 4.4 °F /  -15.3 °C 1027.3 in /  34784.4 hPa NW 14.8 mph /  23.8 km/h 14.8 mph /  23.8 km/h 61 % 0.0 in /  0 mm 396.0 W/m2 CLR
15:16 11.7 °F /  -11.3 °C 4.4 °F /  -15.3 °C 1027.3 in /  34784.4 hPa NNW 16.1 mph /  25.9 km/h 16.1 mph /  25.9 km/h 61 % 0.0 in /  0 mm 374.0 W/m2 CLR
15:21 11.7 °F /  -11.3 °C 4.6 °F /  -15.2 °C 1027.3 in /  34784.4 hPa NNW 18.5 mph /  29.8 km/h 18.5 mph /  29.8 km/h 62 % 0.0 in /  0 mm 325.0 W/m2 CLR
15:37 11.7 °F /  -11.3 °C 4.8 °F /  -15.1 °C 1027.3 in /  34784.4 hPa NNE 18.5 mph /  29.8 km/h 18.5 mph /  29.8 km/h 63 % 0.0 in /  0 mm 248.0 W/m2 CLR
15:44 11.1 °F /  -11.6 °C 4.3 °F /  -15.4 °C 1027.3 in /  34784.4 hPa NNE 18.5 mph /  29.8 km/h 18.5 mph /  29.8 km/h 63 % 0.0 in /  0 mm 174.0 W/m2 CLR
15:59 10.6 °F /  -11.9 °C 3.8 °F /  -15.7 °C 1027.3 in /  34784.4 hPa NNW 13.0 mph /  20.9 km/h 13.0 mph /  20.9 km/h 63 % 0.0 in /  0 mm 149.0 W/m2 CLR
16:11 10.6 °F /  -11.9 °C 4.0 °F /  -15.6 °C 1027.3 in /  34784.4 hPa NW 14.8 mph /  23.8 km/h 14.8 mph /  23.8 km/h 64 % 0.0 in /  0 mm 134.0 W/m2 CLR
16:28 10.6 °F /  -11.9 °C 4.0 °F /  -15.6 °C 1027.3 in /  34784.4 hPa North 13.0 mph /  20.9 km/h 13.0 mph /  20.9 km/h 64 % 0.0 in /  0 mm 139.0 W/m2 CLR
16:33 10.6 °F /  -11.9 °C 4.0 °F /  -15.6 °C 1027.7 in /  34797.9 hPa NNE 14.8 mph /  23.8 km/h 14.8 mph /  23.8 km/h 64 % 0.0 in /  0 mm 102.0 W/m2 CLR
16:47 10.0 °F /  -12.2 °C 3.9 °F /  -15.6 °C 1027.7 in /  34797.9 hPa Calm     66 % 0.0 in /  0 mm 88.0 W/m2 CLR
17:02 9.4 °F /  -12.6 °C 3.4 °F /  -15.9 °C 1027.7 in /  34797.9 hPa Calm     66 % 0.0 in /  0 mm 69.0 W/m2 FEW
17:16 9.4 °F /  -12.6 °C 3.6 °F /  -15.8 °C 1027.3 in /  34784.4 hPa Calm     67 % 0.0 in /  0 mm 39.0 W/m2 BKN
17:25 9.4 °F /  -12.6 °C 3.6 °F /  -15.8 °C 1027.3 in /  34784.4 hPa Calm     67 % 0.0 in /  0 mm 25.0 W/m2 BKN
17:47 7.8 °F /  -13.4 °C 2.1 °F /  -16.6 °C 1027.7 in /  34797.9 hPa Calm     67 % 0.0 in /  0 mm 5.0 W/m2 BKN
17:55 7.8 °F /  -13.4 °C 2.2 °F /  -16.6 °C 1028.0 in /  34808.1 hPa Calm     68 % 0.0 in /  0 mm 0.0 W/m2 OVC
18:21 6.7 °F /  -14.1 °C 1.8 °F /  -16.8 °C 1028.0 in /  34808.1 hPa Calm     71 % 0.0 in /  0 mm 0.0 W/m2 CLR
18:44 6.1 °F /  -14.4 °C 1.4 °F /  -17 °C 1028.0 in /  34808.1 hPa Calm     72 % 0.0 in /  0 mm 0.0 W/m2 CLR
18:51 6.1 °F /  -14.4 °C 1.6 °F /  -16.9 °C 1028.0 in /  34808.1 hPa Calm     73 % 0.0 in /  0 mm 0.0 W/m2 CLR
19:09 6.1 °F /  -14.4 °C 1.8 °F /  -16.8 °C 1027.7 in /  34797.9 hPa WNW 3.7 mph /  6 km/h 3.7 mph /  6 km/h 74 % 0.0 in /  0 mm 0.0 W/m2 CLR
19:15 5.6 °F /  -14.7 °C 1.3 °F /  -17.1 °C 1027.7 in /  34797.9 hPa WNW 5.6 mph /  9 km/h 5.6 mph /  9 km/h 74 % 0.0 in /  0 mm 0.0 W/m2 CLR
19:23 5.6 °F /  -14.7 °C 1.3 °F /  -17.1 °C 1027.7 in /  34797.9 hPa West 5.6 mph /  9 km/h 5.6 mph /  9 km/h 74 % 0.0 in /  0 mm 0.0 W/m2 CLR
19:35 6.1 °F /  -14.4 °C 2.4 °F /  -16.4 °C 1027.3 in /  34784.4 hPa WNW 5.6 mph /  9 km/h 5.6 mph /  9 km/h 77 % 0.0 in /  0 mm 0.0 W/m2 CLR
19:46 5.6 °F /  -14.7 °C 1.7 °F /  -16.8 °C 1027.7 in /  34797.9 hPa Calm     76 % 0.0 in /  0 mm 0.0 W/m2 CLR
19:53 5.0 °F /  -15 °C 1.3 °F /  -17.1 °C 1027.7 in /  34797.9 hPa Calm     77 % 0.0 in /  0 mm 0.0 W/m2 CLR
20:04 4.4 °F /  -15.3 °C 1.1 °F /  -17.2 °C 1028.3 in /  34818.2 hPa Calm     79 % 0.0 in /  0 mm 0.0 W/m2 CLR
20:10 3.9 °F /  -15.6 °C 0.6 °F /  -17.4 °C 1028.3 in /  34818.2 hPa Calm     79 % 0.0 in /  0 mm 0.0 W/m2 CLR
20:19 3.9 °F /  -15.6 °C 0.8 °F /  -17.3 °C 1028.0 in /  34808.1 hPa West 5.6 mph /  9 km/h 5.6 mph /  9 km/h 80 % 0.0 in /  0 mm 0.0 W/m2 CLR
20:38 3.9 °F /  -15.6 °C 0.9 °F /  -17.3 °C 1028.0 in /  34808.1 hPa West 1.9 mph /  3.1 km/h 1.9 mph /  3.1 km/h 81 % 0.0 in /  0 mm 0.0 W/m2 CLR
21:01 2.8 °F /  -16.2 °C 0.2 °F /  -17.7 °C 1028.3 in /  34818.2 hPa Calm     83 % 0.0 in /  0 mm 0.0 W/m2 CLR
21:07 2.8 °F /  -16.2 °C 0.2 °F /  -17.7 °C 1028.3 in /  34818.2 hPa Calm     83 % 0.0 in /  0 mm 0.0 W/m2 CLR
21:19 2.8 °F /  -16.2 °C 0.3 °F /  -17.6 °C 1028.0 in /  34808.1 hPa Calm     84 % 0.0 in /  0 mm 0.0 W/m2 CLR
21:32 2.2 °F /  -16.6 °C 0.1 °F /  -17.7 °C 1028.3 in /  34818.2 hPa Calm     86 % 0.0 in /  0 mm 0.0 W/m2 CLR
21:38 2.2 °F /  -16.6 °C 0.1 °F /  -17.7 °C 1028.3 in /  34818.2 hPa Calm     86 % 0.0 in /  0 mm 0.0 W/m2 CLR
21:46 2.2 °F /  -16.6 °C 0.1 °F /  -17.7 °C 1028.3 in /  34818.2 hPa Calm     86 % 0.0 in /  0 mm 0.0 W/m2 CLR
21:47 2.2 °F /  -16.6 °C 0.1 °F /  -17.7 °C 1028.7 in /  34831.8 hPa Calm     86 % 0.0 in /  0 mm 0.0 W/m2 CLR
21:48 2.2 °F /  -16.6 °C 0.1 °F /  -17.7 °C 1028.7 in /  34831.8 hPa Calm     86 % 0.0 in /  0 mm 0.0 W/m2 CLR
21:49 2.2 °F /  -16.6 °C 0.1 °F /  -17.7 °C 1028.7 in /  34831.8 hPa Calm     86 % 0.0 in /  0 mm 0.0 W/m2 CLR
21:50 2.2 °F /  -16.6 °C 0.1 °F /  -17.7 °C 1028.7 in /  34831.8 hPa Calm     86 % 0.0 in /  0 mm 0.0 W/m2 CLR
22:03 2.2 °F /  -16.6 °C 0.1 °F /  -17.7 °C 1028.3 in /  34818.2 hPa Calm     86 % 0.0 in /  0 mm 0.0 W/m2 CLR
22:07 2.2 °F /  -16.6 °C 0.3 °F /  -17.6 °C 1028.3 in /  34818.2 hPa Calm     87 % 0.0 in /  0 mm 0.0 W/m2 CLR
22:09 2.2 °F /  -16.6 °C 0.3 °F /  -17.6 °C 1028.3 in /  34818.2 hPa Calm     87 % 0.0 in /  0 mm 0.0 W/m2 CLR
22:16 1.7 °F /  -16.8 °C -0.3 °F /  -17.9 °C 1028.7 in /  34831.8 hPa Calm     87 % 0.0 in /  0 mm 0.0 W/m2 CLR
22:21 1.1 °F /  -17.2 °C -0.8 °F /  -18.2 °C 1028.3 in /  34818.2 hPa Calm     87 % 0.0 in /  0 mm 0.0 W/m2 CLR
22:33 1.1 °F /  -17.2 °C -0.8 °F /  -18.2 °C 1028.3 in /  34818.2 hPa Calm     87 % 0.0 in /  0 mm 0.0 W/m2 CLR
23:09 0.6 °F /  -17.4 °C -1.2 °F /  -18.4 °C 1028.3 in /  34818.2 hPa Calm     88 % 0.0 in /  0 mm 0.0 W/m2 CLR
Lo Temps de Massalio
Compliments of Weather Underground - 768 kb